Time;durP1;ratioP1;P1;durP2;ratioP2;P2;SDS_P1;SDS_P2;PMS_P1;PMS_P2;Temp;Humidity;BMP_temperature;BMP_pressure;BME280_temperature;BME280_humidity;BME280_pressure;Samples;Min_cycle;Max_cycle;Signal;HPM_P1;HPM_P2
2022/01/31 00:00:43;;;;;;;;;30.50;25.50;;;;;20.89;37.51;101489.56;5062878;28;45520;-73
2022/01/31 00:03:08;;;;;;;;;32.25;26.50;;;;;20.84;37.37;101477.28;5059029;28;47058;-73
2022/01/31 00:05:33;;;;;;;;;29.00;27.50;;;;;20.79;37.52;101468.56;5058989;28;53393;-73
2022/01/31 00:07:59;;;;;;;;;31.00;24.25;;;;;20.79;37.82;101452.66;5045723;28;55619;-73
2022/01/31 00:10:29;;;;;;;;;28.00;25.25;;;;;20.74;37.97;101450.09;5079552;28;45287;-73
2022/01/31 00:15:27;;;;;;;;;24.50;21.00;;;;;20.73;37.43;101437.72;5063477;28;45241;-73
2022/01/31 00:17:53;;;;;;;;;29.25;24.00;;;;;20.72;38.49;101435.13;5079517;28;45269;-73
2022/01/31 00:20:18;;;;;;;;;29.25;23.00;;;;;20.71;37.60;101434.25;5079419;28;45630;-73
2022/01/31 00:22:44;;;;;;;;;26.75;23.50;;;;;20.75;38.18;101417.34;5059261;28;45733;-73
2022/01/31 00:25:09;;;;;;;;;22.75;19.75;;;;;20.76;38.38;101412.91;5076861;28;45306;-73
2022/01/31 00:27:35;;;;;;;;;30.00;24.25;;;;;20.78;38.05;101408.47;5062081;28;45369;-73
2022/01/31 00:30:00;;;;;;;;;23.75;20.50;;;;;20.83;37.63;101407.44;5062327;28;45473;-73
2022/01/31 00:32:29;;;;;;;;;22.00;19.75;;;;;20.84;37.92;101421.56;5042165;28;47237;-73
2022/01/31 00:34:56;;;;;;;;;20.75;20.25;;;;;20.81;37.82;101406.59;5044172;28;45618;-73
2022/01/31 00:37:21;;;;;;;;;18.25;16.75;;;;;20.81;37.43;101393.34;5042607;28;45351;-73
2022/01/31 00:39:47;;;;;;;;;18.00;16.75;;;;;20.81;37.39;101395.13;5042856;28;45245;-73
2022/01/31 00:42:12;;;;;;;;;17.25;15.50;;;;;20.77;37.31;101389.03;5079112;28;47035;-73
2022/01/31 00:44:52;;;;;;;;;18.75;15.25;;;;;20.74;37.32;101402.34;5044675;28;59614;-73
2022/01/31 00:47:21;;;;;;;;;16.25;15.50;;;;;20.72;37.06;101385.59;5079416;28;45378;-73
2022/01/31 00:49:51;;;;;;;;;24.00;19.25;;;;;20.71;37.35;101402.41;5062442;28;45894;-73
2022/01/31 00:52:17;;;;;;;;;17.00;14.00;;;;;20.70;36.81;101410.41;5043485;28;47195;-73
2022/01/31 00:54:42;;;;;;;;;14.25;13.00;;;;;20.64;37.13;101407.88;5080246;27;45386;-73
2022/01/31 00:57:08;;;;;;;;;16.25;13.50;;;;;20.60;37.30;101399.13;5062053;27;45939;-73
2022/01/31 00:59:33;;;;;;;;;14.50;13.75;;;;;20.58;37.50;101403.56;5078484;28;59847;-73
2022/01/31 01:01:59;;;;;;;;;15.00;12.00;;;;;20.56;37.49;101402.75;5058278;28;61084;-73
2022/01/31 01:04:24;;;;;;;;;15.50;14.00;;;;;20.53;37.46;101390.44;5078941;28;46837;-73
2022/01/31 01:06:49;;;;;;;;;18.00;12.75;;;;;20.53;37.70;101366.56;5078950;28;45456;-73
2022/01/31 01:09:15;;;;;;;;;10.75;10.00;;;;;20.49;37.48;101362.22;5045199;28;45612;-73
2022/01/31 01:11:40;;;;;;;;;18.75;16.75;;;;;20.45;38.38;101344.66;5058627;28;46060;-73
2022/01/31 01:14:06;;;;;;;;;15.00;14.00;;;;;20.48;38.15;101356.94;5079214;28;46626;-73
2022/01/31 01:16:31;;;;;;;;;13.50;13.50;;;;;20.49;37.40;101358.69;5061736;28;45256;-73
2022/01/31 01:18:57;;;;;;;;;16.75;12.75;;;;;20.50;37.40;101344.53;5041834;28;45346;-73
2022/01/31 01:21:22;;;;;;;;;13.00;12.50;;;;;20.49;37.56;101342.78;5051960;28;45612;-73
2022/01/31 01:23:48;;;;;;;;;10.50;10.50;;;;;20.48;37.51;101338.38;5061379;28;54260;-73
2022/01/31 01:26:13;;;;;;;;;17.50;13.25;;;;;20.50;37.87;101336.56;5041576;28;45277;-73
2022/01/31 01:28:39;;;;;;;;;12.50;11.25;;;;;20.50;38.01;101328.63;5041782;28;45614;-73
2022/01/31 01:31:04;;;;;;;;;14.25;9.50;;;;;20.53;37.85;101328.56;5051702;28;46377;-73
2022/01/31 01:33:37;;;;;;;;;9.25;9.25;;;;;20.52;37.49;101314.44;5061520;28;52256;-73
2022/01/31 01:36:04;;;;;;;;;11.25;10.00;;;;;20.49;37.62;101293.28;5078749;28;45282;-73
2022/01/31 01:38:30;;;;;;;;;9.75;8.75;;;;;20.46;37.42;101290.69;5043440;28;45878;-73
2022/01/31 01:40:57;;;;;;;;;11.50;11.00;;;;;20.41;37.53;101273.13;5059593;28;45867;-73
2022/01/31 01:43:23;;;;;;;;;11.25;8.75;;;;;20.36;38.03;101262.63;5065491;28;45393;-73
2022/01/31 01:45:50;;;;;;;;;14.50;9.75;;;;;20.30;38.17;101268.94;5065107;28;45485;-73
2022/01/31 01:48:16;;;;;;;;;12.50;10.00;;;;;20.33;37.53;101270.66;5081801;28;45468;-73
2022/01/31 01:50:41;;;;;;;;;10.75;9.00;;;;;20.33;38.14;101262.72;5063134;28;49738;-73
2022/01/31 01:53:06;;;;;;;;;11.75;8.00;;;;;20.32;38.00;101258.28;5048190;28;45684;-73
2022/01/31 01:55:32;;;;;;;;;9.75;8.00;;;;;20.31;37.85;101268.03;5064540;28;49382;-73
2022/01/31 01:57:58;;;;;;;;;14.50;10.00;;;;;20.29;38.07;101255.72;5055088;28;50702;-73
2022/01/31 02:00:27;;;;;;;;;10.00;8.25;;;;;20.29;37.95;101272.50;5055886;28;45952;-73
2022/01/31 02:02:54;;;;;;;;;10.25;9.50;;;;;20.26;38.31;101283.19;5063640;28;45464;-73
2022/01/31 02:05:19;;;;;;;;;11.50;9.25;;;;;20.24;37.81;101279.69;5045874;28;45358;-73
2022/01/31 02:07:45;;;;;;;;;12.00;9.00;;;;;20.23;38.92;101255.84;5065065;28;45497;-73
2022/01/31 02:10:10;;;;;;;;;8.75;7.25;;;;;20.24;37.68;101266.44;5063805;28;45714;-73
2022/01/31 02:12:40;;;;;;;;;9.75;8.25;;;;;20.23;38.55;101263.78;5064847;28;45379;-73
2022/01/31 02:15:07;;;;;;;;;8.25;8.25;;;;;20.26;38.81;101245.19;5064852;27;45271;-73
2022/01/31 02:17:32;;;;;;;;;7.50;6.00;;;;;20.29;38.41;101259.25;5064568;28;45359;-73
2022/01/31 02:19:58;;;;;;;;;12.75;9.00;;;;;20.31;38.45;101252.13;5062335;28;54843;-73
2022/01/31 02:22:23;;;;;;;;;6.25;5.25;;;;;20.31;38.14;101236.22;5061030;28;50247;-73
2022/01/31 02:24:48;;;;;;;;;7.00;6.25;;;;;20.32;38.07;101224.69;5061971;28;52030;-73
2022/01/31 02:27:14;;;;;;;;;8.25;6.50;;;;;20.35;38.59;101222.91;5064817;28;45358;-73
2022/01/31 02:29:39;;;;;;;;;7.50;6.25;;;;;20.38;38.54;101250.19;5067681;28;58368;-73
2022/01/31 02:32:05;;;;;;;;;8.25;8.00;;;;;20.37;38.42;101224.59;5032077;28;45812;-73
2022/01/31 02:34:30;;;;;;;;;6.00;5.50;;;;;20.40;38.94;101221.88;5076130;28;45295;-73
2022/01/31 02:36:56;;;;;;;;;8.50;7.50;;;;;20.42;38.87;101200.66;5064396;28;45427;-73
2022/01/31 02:39:21;;;;;;;;;8.25;5.75;;;;;20.44;38.67;101202.38;5063393;28;63124;-73
2022/01/31 02:41:48;;;;;;;;;7.00;5.75;;;;;20.45;38.79;101208.56;5064073;28;50937;-73
2022/01/31 02:44:15;;;;;;;;;9.25;6.00;;;;;20.45;38.34;101216.50;5047744;28;45268;-73
2022/01/31 02:46:47;;;;;;;;;8.00;6.75;;;;;20.43;38.74;101187.38;5064395;28;45511;-73
2022/01/31 02:49:15;;;;;;;;;6.75;6.00;;;;;20.42;38.47;101190.03;5063137;28;46342;-73
2022/01/31 02:51:46;;;;;;;;;10.00;8.00;;;;;20.39;38.76;101183.00;5060386;28;45260;-73
2022/01/31 02:54:11;;;;;;;;;9.50;7.00;;;;;20.38;38.52;101168.03;5061141;28;45410;-73
2022/01/31 02:56:40;;;;;;;;;6.25;6.00;;;;;20.37;38.51;101178.66;5046719;28;62580;-73
2022/01/31 02:59:05;;;;;;;;;6.75;5.00;;;;;20.33;38.34;101157.53;5064136;28;47646;-73
2022/01/31 03:01:34;;;;;;;;;7.75;6.75;;;;;20.30;38.82;101176.16;5060456;28;45373;-73
2022/01/31 03:03:59;;;;;;;;;6.00;4.50;;;;;20.27;38.62;101170.94;5050083;28;45529;-73
2022/01/31 03:06:24;;;;;;;;;6.75;6.75;;;;;20.22;38.33;101146.31;5062930;28;60081;-73
2022/01/31 03:08:50;;;;;;;;;4.25;4.25;;;;;20.22;38.47;101158.69;5046024;28;59135;-73
2022/01/31 03:11:15;;;;;;;;;7.00;5.75;;;;;20.19;38.63;101124.31;5060255;28;45446;-73
2022/01/31 03:13:41;;;;;;;;;4.00;4.00;;;;;20.16;38.60;101119.97;5063438;28;45433;-73
2022/01/31 03:16:06;;;;;;;;;5.00;4.75;;;;;20.13;38.48;101138.56;5063516;28;52505;-73
2022/01/31 03:18:32;;;;;;;;;3.25;3.25;;;;;20.11;38.25;101115.69;5080236;28;45362;-73
2022/01/31 03:20:57;;;;;;;;;4.25;3.00;;;;;20.04;38.52;101101.69;5046905;28;45750;-73
2022/01/31 03:23:22;;;;;;;;;2.50;2.50;;;;;19.98;38.78;101116.00;5063528;28;45695;-73
2022/01/31 03:25:48;;;;;;;;;5.00;5.00;;;;;19.96;39.06;101115.13;5081439;27;52212;-73
2022/01/31 03:28:13;;;;;;;;;1.50;1.00;;;;;19.96;39.14;101099.22;5062626;28;65863;-74
2022/01/31 03:30:39;;;;;;;;;6.00;4.00;;;;;19.96;38.78;101124.84;5080742;28;45296;-73
2022/01/31 03:33:04;;;;;;;;;6.50;5.75;;;;;19.94;39.01;101113.44;5063256;28;45189;-73
2022/01/31 03:35:29;;;;;;;;;5.50;3.75;;;;;19.94;39.35;101130.19;5063756;28;45458;-73
2022/01/31 03:37:55;;;;;;;;;4.75;4.75;;;;;19.95;39.25;101136.38;5063018;28;53188;-74
2022/01/31 03:40:20;;;;;;;;;4.00;4.00;;;;;19.92;39.55;101110.81;5079829;28;58804;-74
2022/01/31 03:42:45;;;;;;;;;6.50;4.25;;;;;19.93;39.62;101093.16;5079941;28;51831;-73
2022/01/31 03:45:11;;;;;;;;;3.75;2.75;;;;;19.95;39.30;101118.69;5062756;28;60291;-74
2022/01/31 03:47:43;;;;;;;;;5.00;3.75;;;;;19.94;39.92;101111.66;5079775;28;48012;-74
2022/01/31 03:50:09;;;;;;;;;3.50;3.25;;;;;19.92;40.00;101084.34;5080064;28;45249;-74
2022/01/31 03:52:35;;;;;;;;;4.00;4.00;;;;;19.94;40.11;101094.88;5045660;28;45205;-74
2022/01/31 03:55:00;;;;;;;;;6.00;4.00;;;;;19.95;40.03;101107.22;5046366;28;45739;-73
2022/01/31 03:57:25;;;;;;;;;4.50;4.50;;;;;19.97;40.00;101081.56;5079665;28;46715;-74
2022/01/31 03:59:51;;;;;;;;;4.50;4.50;;;;;19.93;40.03;101075.47;5059701;28;50751;-74
2022/01/31 04:02:16;;;;;;;;;3.00;3.00;;;;;19.89;40.09;101070.28;5040210;28;56829;-74
2022/01/31 04:04:41;;;;;;;;;4.00;3.50;;;;;19.90;40.58;101066.75;5062909;28;45516;-74
2022/01/31 04:07:07;;;;;;;;;6.25;4.75;;;;;19.90;40.28;101094.09;5079660;28;46924;-74
2022/01/31 04:09:32;;;;;;;;;5.00;4.25;;;;;19.91;40.53;101122.34;5062745;28;45926;-74
2022/01/31 04:11:58;;;;;;;;;6.25;3.25;;;;;19.89;40.22;101094.09;5063169;28;45504;-73
2022/01/31 04:14:26;;;;;;;;;2.75;2.00;;;;;19.89;40.29;101102.06;5062667;28;52956;-74
2022/01/31 04:16:54;;;;;;;;;4.00;2.50;;;;;19.84;40.59;101118.06;5062888;28;47396;-74
2022/01/31 04:19:19;;;;;;;;;2.00;2.00;;;;;19.82;40.58;101124.31;5059385;28;45429;-74
2022/01/31 04:21:45;;;;;;;;;2.75;2.75;;;;;19.79;40.72;101114.66;5056157;28;45219;-73
2022/01/31 04:24:10;;;;;;;;;3.00;3.00;;;;;19.76;40.66;101107.66;5058850;28;57205;-74
2022/01/31 04:26:45;;;;;;;;;3.25;3.25;;;;;19.74;40.62;101111.25;5059104;28;47236;-74
2022/01/31 04:29:14;;;;;;;;;3.25;2.00;;;;;19.73;40.69;101104.22;5064255;28;45511;-74
2022/01/31 04:31:44;;;;;;;;;4.25;2.50;;;;;19.70;40.90;101109.56;5063515;27;45989;-74
2022/01/31 04:34:10;;;;;;;;;3.50;3.00;;;;;19.70;41.22;101107.78;5043638;28;45866;-74
2022/01/31 04:36:35;;;;;;;;;3.25;2.25;;;;;19.70;41.16;101107.78;5058008;28;45985;-74
2022/01/31 04:39:01;;;;;;;;;4.00;3.00;;;;;19.73;41.28;101120.09;5059039;28;45231;-74
2022/01/31 04:41:26;;;;;;;;;4.00;3.00;;;;;19.75;41.23;101129.75;5059125;28;45268;-73
2022/01/31 04:43:55;;;;;;;;;2.50;2.50;;;;;19.75;41.12;101129.75;5058930;28;45460;-74
2022/01/31 04:46:20;;;;;;;;;4.00;3.00;;;;;19.76;41.27;101118.25;5059083;28;47236;-73
2022/01/31 04:48:46;;;;;;;;;3.75;2.25;;;;;19.76;40.97;101105.00;5079161;28;45253;-74
2022/01/31 04:51:12;;;;;;;;;4.00;3.25;;;;;19.77;41.32;101106.75;5062297;28;45764;-74
2022/01/31 04:53:38;;;;;;;;;1.50;1.50;;;;;19.75;41.06;101113.00;5059062;28;45244;-74
2022/01/31 04:56:04;;;;;;;;;4.50;3.00;;;;;19.75;41.18;101092.66;5058496;28;47038;-73
2022/01/31 04:58:31;;;;;;;;;2.75;2.75;;;;;19.76;41.26;101090.91;5063721;28;45212;-73
2022/01/31 05:00:56;;;;;;;;;2.00;2.00;;;;;19.79;40.72;101096.09;5062486;28;45581;-72
2022/01/31 05:03:22;;;;;;;;;2.25;1.75;;;;;19.79;40.77;101106.69;5078834;28;45457;-73
2022/01/31 05:05:48;;;;;;;;;2.00;2.00;;;;;19.81;40.86;101117.25;5041722;28;47253;-73
2022/01/31 05:08:13;;;;;;;;;2.00;2.00;;;;;19.80;41.30;101113.72;5070746;28;45421;-73
2022/01/31 05:10:45;;;;;;;;;2.50;2.50;;;;;19.79;41.32;101127.88;5045090;28;45435;-73
2022/01/31 05:13:12;;;;;;;;;3.50;3.00;;;;;19.79;41.07;101124.38;5064088;28;45434;-73
2022/01/31 05:15:37;;;;;;;;;3.50;3.00;;;;;19.81;41.16;101130.50;5065614;28;46108;-72
2022/01/31 05:18:03;;;;;;;;;2.00;2.00;;;;;19.84;41.41;101133.09;5059151;28;45473;-73
2022/01/31 05:20:31;;;;;;;;;5.25;2.25;;;;;19.84;40.63;101131.31;5061795;28;53627;-73
2022/01/31 05:22:56;;;;;;;;;1.25;1.25;;;;;19.83;40.19;101131.34;5074971;28;59142;-73
2022/01/31 05:25:22;;;;;;;;;5.00;2.25;;;;;19.82;41.02;101130.50;5047096;28;64230;-72
2022/01/31 05:27:47;;;;;;;;;1.00;1.00;;;;;19.83;40.78;101128.72;5064553;28;61992;-73
2022/01/31 05:30:12;;;;;;;;;2.25;1.75;;;;;19.85;41.01;101134.84;5082514;28;45638;-73
2022/01/31 05:32:38;;;;;;;;;3.00;2.00;;;;;19.87;40.81;101146.25;5045088;28;45774;-73
2022/01/31 05:35:05;;;;;;;;;2.00;2.00;;;;;19.89;40.35;101152.38;5047815;28;47499;-73
2022/01/31 05:37:34;;;;;;;;;3.00;1.00;;;;;19.89;40.07;101142.66;5065687;28;45180;-73
2022/01/31 05:39:59;;;;;;;;;2.50;1.75;;;;;19.88;39.69;101140.06;5083587;28;45244;-73
2022/01/31 05:42:25;;;;;;;;;2.00;1.75;;;;;19.90;39.69;101157.69;5048202;28;50205;-73
2022/01/31 05:44:50;;;;;;;;;0.75;0.75;;;;;19.90;39.35;101162.97;5061170;28;65547;-73
2022/01/31 05:47:16;;;;;;;;;3.00;1.50;;;;;19.88;39.43;101148.00;5076022;28;51135;-75
2022/01/31 05:49:41;;;;;;;;;2.00;2.00;;;;;19.87;39.55;101138.31;5065103;28;45218;-75
2022/01/31 05:52:07;;;;;;;;;2.75;2.00;;;;;19.91;39.90;101140.88;5083201;27;45514;-73
2022/01/31 05:54:37;;;;;;;;;4.50;3.50;;;;;19.94;40.71;101148.75;5044842;28;48437;-74
2022/01/31 05:57:05;;;;;;;;;2.50;1.00;;;;;20.07;41.53;101144.03;5043740;28;45478;-83
2022/01/31 05:59:31;;;;;;;;;2.75;2.00;;;;;20.17;42.11;101153.50;5045364;28;45386;-77
2022/01/31 06:01:58;;;;;;;;;3.00;2.00;;;;;20.32;42.86;101141.66;5058234;28;45426;-78
2022/01/31 06:04:24;;;;;;;;;1.50;1.50;;;;;20.46;43.16;101128.97;5061790;27;47372;-76
2022/01/31 06:06:49;;;;;;;;;4.00;2.00;;;;;20.65;42.92;101128.50;5075047;28;45190;-77
2022/01/31 06:09:14;;;;;;;;;2.00;2.00;;;;;20.82;42.98;101127.13;5061519;28;45697;-85
2022/01/31 06:11:41;;;;;;;;;1.50;1.50;;;;;21.04;42.41;101130.06;5055986;28;45497;-81
2022/01/31 06:14:10;;;;;;;;;5.25;3.00;;;;;21.22;42.33;101143.75;5061701;28;47468;-76
2022/01/31 06:16:35;;;;;;;;;8.00;3.50;;;;;21.34;42.33;101146.06;5048447;28;45383;-79
2022/01/31 06:19:01;;;;;;;;;3.75;2.25;;;;;21.36;41.80;101123.88;5048011;28;45414;-83
2022/01/31 06:21:26;;;;;;;;;4.50;2.00;;;;;21.45;42.87;101147.50;5064545;28;45536;-79
2022/01/31 06:23:52;;;;;;;;;4.00;1.75;;;;;21.50;42.34;101154.47;5063614;28;46949;-78
2022/01/31 06:26:21;;;;;;;;;2.00;2.00;;;;;21.57;42.73;101156.03;5056943;28;45308;-82
2022/01/31 06:28:49;;;;;;;;;3.50;3.00;;;;;21.58;42.42;101144.50;5064887;28;45323;-82
2022/01/31 06:31:15;;;;;;;;;3.00;2.00;;;;;21.58;42.28;101139.19;5063973;27;45434;-82
2022/01/31 06:33:41;;;;;;;;;4.25;4.00;;;;;21.57;42.44;101146.28;5064390;27;47493;-82
2022/01/31 06:36:06;;;;;;;;;2.00;2.00;;;;;21.56;41.80;101143.69;5064401;28;45385;-81
2022/01/31 06:38:32;;;;;;;;;6.00;4.00;;;;;21.57;42.27;101159.56;5064900;28;45902;-81
2022/01/31 06:40:57;;;;;;;;;4.00;3.00;;;;;21.59;42.29;101168.34;5064604;28;45375;-81
2022/01/31 06:43:22;;;;;;;;;5.33;5.00;;;;;21.59;42.47;101143.56;5064135;28;48811;-83
2022/01/31 06:45:54;;;;;;;;;3.00;3.00;;;;;21.60;42.31;101145.31;5050859;28;45275;-88
2022/01/31 06:48:19;;;;;;;;;4.75;3.00;;;;;21.61;41.93;101141.72;5028015;28;45297;-89
2022/01/31 06:50:45;;;;;;;;;6.25;3.75;;;;;21.62;41.82;101154.97;5044169;28;47364;-83
2022/01/31 06:53:12;;;;;;;;;3.75;3.00;;;;;21.64;42.22;101165.56;5048164;28;60733;-83
2022/01/31 06:55:37;;;;;;;;;3.50;3.50;;;;;21.67;42.10;101158.38;5056621;28;45279;-84
2022/01/31 06:58:03;;;;;;;;;3.00;2.00;;;;;21.64;41.92;101149.63;5053843;28;45589;-81
2022/01/31 07:00:28;;;;;;;;;7.00;4.00;;;;;21.68;42.08;101151.25;5075885;28;45210;-78
2022/01/31 07:02:56;;;;;;;;;3.00;3.00;;;;;21.69;41.76;101155.66;5060352;28;45364;-82
2022/01/31 07:05:21;;;;;;;;;6.50;4.00;;;;;21.69;42.42;101155.66;5061039;28;45601;-76
2022/01/31 07:07:47;;;;;;;;;2.25;2.25;;;;;21.70;42.16;101160.06;5081108;28;45539;-80
2022/01/31 07:10:12;;;;;;;;;2.00;2.00;;;;;21.71;41.80;101175.06;5063670;28;45362;-80
2022/01/31 07:12:40;;;;;;;;;5.00;3.50;;;;;21.73;42.01;101178.56;5063814;28;45476;-80
2022/01/31 07:15:09;;;;;;;;;1.75;1.75;;;;;21.72;41.84;101174.19;5061824;28;45350;-80
2022/01/31 07:17:35;;;;;;;;;2.50;2.50;;;;;21.73;41.59;101171.47;5080411;28;45334;-80
2022/01/31 07:20:06;;;;;;;;;4.00;3.00;;;;;21.72;42.01;101176.84;5045194;28;45479;-80
2022/01/31 07:22:36;;;;;;;;;6.50;4.25;;;;;21.75;41.80;101192.69;5063918;28;46295;-79
2022/01/31 07:25:06;;;;;;;;;3.75;3.00;;;;;21.75;41.68;101191.81;5063942;28;45809;-80
2022/01/31 07:27:31;;;;;;;;;5.00;3.00;;;;;21.71;41.95;101191.00;5064581;27;45315;-79
2022/01/31 07:29:56;;;;;;;;;3.00;3.00;;;;;21.74;41.71;101196.25;5047269;28;45571;-79
2022/01/31 07:32:22;;;;;;;;;2.25;2.25;;;;;21.73;41.37;101190.06;5046693;28;47574;-76
2022/01/31 07:34:50;;;;;;;;;6.00;3.00;;;;;21.72;38.72;101198.09;5063113;28;54948;-89
2022/01/31 07:37:16;;;;;;;;;7.25;4.00;;;;;21.62;39.81;101191.28;5054630;27;45256;-89
2022/01/31 07:39:42;;;;;;;;;2.00;2.00;;;;;21.60;39.55;101201.97;5063987;28;45478;-91
2022/01/31 07:42:08;;;;;;;;;4.00;3.00;;;;;21.54;39.89;101185.31;5063348;28;47122;-81
2022/01/31 07:44:36;;;;;;;;;5.50;3.00;;;;;21.53;38.38;101207.50;5079810;28;45386;-87
2022/01/31 07:47:02;;;;;;;;;2.00;2.00;;;;;21.46;39.17;101201.50;5056036;28;45350;-86
2022/01/31 07:49:27;;;;;;;;;2.75;2.50;;;;;21.49;39.05;101212.03;5041766;28;45628;-85
2022/01/31 07:51:54;;;;;;;;;3.00;3.00;;;;;21.50;38.80;101218.22;5051851;28;47090;-83
2022/01/31 07:54:20;;;;;;;;;4.00;3.75;;;;;21.52;38.74;101211.94;5025393;28;46042;-85
2022/01/31 07:56:48;;;;;;;;;6.50;4.00;;;;;21.49;38.84;101211.16;5053059;28;45279;-82
2022/01/31 07:59:14;;;;;;;;;7.00;3.00;;;;;21.56;38.64;101226.88;5045062;28;45482;-87
2022/01/31 08:01:39;;;;;;;;;2.75;2.50;;;;;21.53;38.78;101226.09;5046298;28;46833;-82
2022/01/31 08:04:05;;;;;;;;;2.50;2.50;;;;;21.58;38.62;101238.31;5062819;28;45648;-81
2022/01/31 08:06:30;;;;;;;;;5.00;1.75;;;;;21.54;38.56;101236.66;5051492;28;45503;-81
2022/01/31 08:08:56;;;;;;;;;3.50;3.50;;;;;21.57;38.36;101235.72;5059095;28;58436;-81
2022/01/31 08:11:23;;;;;;;;;3.00;3.00;;;;;21.58;38.23;101253.41;5059350;28;45508;-81
2022/01/31 08:13:54;;;;;;;;;3.25;3.00;;;;;21.58;37.76;101253.41;5059336;28;45236;-84
2022/01/31 08:16:20;;;;;;;;;4.75;3.50;;;;;21.57;37.77;101256.97;5043910;28;45331;-84
2022/01/31 08:18:46;;;;;;;;;5.00;4.00;;;;;21.57;38.64;101254.31;5070779;28;53450;-84
2022/01/31 08:21:12;;;;;;;;;3.75;3.00;;;;;21.56;37.70;101253.44;5062277;28;46513;-84
2022/01/31 08:23:38;;;;;;;;;3.00;2.00;;;;;21.57;38.17;101255.19;5079428;28;45298;-78
2022/01/31 08:26:05;;;;;;;;;3.25;2.00;;;;;21.57;37.57;101263.16;5080692;27;45293;-80
2022/01/31 08:28:41;;;;;;;;;2.75;2.00;;;;;21.54;37.82;101263.22;5090691;28;45259;-82
2022/01/31 08:31:12;;;;;;;;;2.25;2.25;;;;;21.53;37.68;101245.53;5059415;28;46232;-79
2022/01/31 08:33:43;;;;;;;;;3.00;2.00;;;;;21.51;37.46;101249.16;5073754;28;45500;-81
2022/01/31 08:36:09;;;;;;;;;2.50;2.00;;;;;21.50;37.49;101244.78;5060659;28;45565;-76
2022/01/31 08:38:35;;;;;;;;;4.25;2.25;;;;;21.48;38.07;101252.78;5060221;28;45453;-76
2022/01/31 08:41:00;;;;;;;;;1.50;1.50;;;;;21.48;37.30;101252.78;5061671;28;45406;-78
2022/01/31 08:43:26;;;;;;;;;3.00;2.25;;;;;21.48;37.94;101249.25;5061563;28;45255;-79
2022/01/31 08:45:55;;;;;;;;;5.50;2.00;;;;;21.49;37.13;101243.03;5058232;28;45450;-79
2022/01/31 08:48:20;;;;;;;;;3.25;3.00;;;;;21.47;36.85;101239.56;5055574;28;45427;-81
2022/01/31 08:50:46;;;;;;;;;2.00;2.00;;;;;21.43;37.13;101265.31;5077045;28;46520;-80
2022/01/31 08:53:11;;;;;;;;;1.25;0.75;;;;;21.42;37.03;101285.69;5077362;28;45227;-82
2022/01/31 08:55:36;;;;;;;;;3.25;2.00;;;;;21.43;37.61;101271.47;5076424;28;58383;-79
2022/01/31 08:58:05;;;;;;;;;5.00;3.25;;;;;21.42;37.63;101298.09;5076050;28;45294;-80
2022/01/31 09:00:34;;;;;;;;;4.00;2.00;;;;;21.40;37.65;101294.59;5077838;28;45459;-80
2022/01/31 09:03:19;;;;;;;;;3.00;2.75;;;;;21.41;37.92;101297.22;5079577;27;45314;-80
2022/01/31 09:05:45;;;;;;;;;1.25;1.25;;;;;21.41;37.26;101277.75;5057032;28;45485;-77
2022/01/31 09:08:10;;;;;;;;;3.00;2.25;;;;;21.38;36.78;101273.41;5070880;28;45425;-84
2022/01/31 09:10:36;;;;;;;;;4.75;2.50;;;;;21.33;37.07;101259.38;5061548;28;45377;-82
2022/01/31 09:13:01;;;;;;;;;2.00;2.00;;;;;21.29;36.62;101257.72;5053450;28;45180;-82
2022/01/31 09:15:27;;;;;;;;;2.00;2.00;;;;;21.24;37.12;101243.66;5077515;28;57233;-82
2022/01/31 09:17:52;;;;;;;;;3.25;3.25;;;;;21.24;36.93;101259.59;5043002;28;45845;-80
2022/01/31 09:20:17;;;;;;;;;2.50;2.50;;;;;21.18;36.38;101252.66;5076838;28;45473;-82
2022/01/31 09:22:43;;;;;;;;;5.25;2.00;;;;;21.14;36.68;101255.44;5057302;28;45302;-82
2022/01/31 09:25:12;;;;;;;;;3.75;1.75;;;;;21.11;36.62;101250.19;5077348;28;45302;-80
2022/01/31 09:27:37;;;;;;;;;3.00;2.00;;;;;21.09;36.63;101265.28;5061240;28;45495;-81
2022/01/31 09:30:04;;;;;;;;;2.00;2.00;;;;;21.09;36.40;101263.50;5079176;27;47115;-90
2022/01/31 09:32:30;;;;;;;;;1.00;0.25;;;;;21.12;36.75;101262.59;5057047;28;45408;-81
2022/01/31 09:34:55;;;;;;;;;3.25;1.50;;;;;21.10;37.07;101251.97;5072195;27;45488;-79
2022/01/31 09:37:21;;;;;;;;;3.50;1.75;;;;;21.13;36.64;101283.78;5068314;27;45429;-81
2022/01/31 09:40:03;;;;;;;;;4.25;3.00;;;;;21.13;36.91;101267.84;5043246;28;47951;-75
2022/01/31 09:42:35;;;;;;;;;2.00;2.00;;;;;21.14;36.38;101266.06;5046048;28;45259;-74
2022/01/31 09:50:13;;;;;;;;;4.00;2.00;;;;;21.24;36.18;101283.47;5062028;28;45808;-79
2022/01/31 09:52:38;;;;;;;;;2.00;1.75;;;;;21.21;36.25;101266.78;5032330;28;49727;-78
2022/01/31 09:55:04;;;;;;;;;5.25;3.00;;;;;21.22;36.09;101261.41;5055715;28;45689;-77
2022/01/31 09:57:30;;;;;;;;;3.00;3.00;;;;;21.23;35.64;101272.91;5073943;27;45248;-77
2022/01/31 09:59:55;;;;;;;;;2.75;2.75;;;;;21.21;35.99;101267.66;5048508;28;47212;-77
2022/01/31 10:02:20;;;;;;;;;2.50;1.75;;;;;21.25;36.24;101285.22;5059743;28;58498;-76
2022/01/31 10:04:48;;;;;;;;;3.75;1.00;;;;;21.27;36.31;101285.22;5062446;28;45256;-76
2022/01/31 10:07:14;;;;;;;;;2.75;2.00;;;;;21.28;36.01;101284.28;5044862;28;45499;-77
2022/01/31 10:09:43;;;;;;;;;2.75;2.00;;;;;21.26;36.57;101272.81;5040417;28;47391;-77
2022/01/31 10:17:42;;;;;;;;;1.75;1.50;;;;;21.28;36.29;101301.09;5079070;28;45413;-79
2022/01/31 10:20:29;;;;;;;;;1.50;1.50;;;;;21.33;36.59;101296.53;5047069;28;48643;-76
2022/01/31 10:22:56;;;;;;;;;2.50;2.50;;;;;21.37;36.19;101292.91;5079281;27;45385;-78
2022/01/31 10:25:23;;;;;;;;;2.00;2.00;;;;;21.41;35.19;101294.56;5080334;28;45449;-78
2022/01/31 10:27:52;;;;;;;;;1.75;1.50;;;;;21.45;35.51;101301.53;5077667;28;45549;-77
2022/01/31 10:30:19;;;;;;;;;2.75;1.75;;;;;21.45;34.70;101298.88;5044076;28;47891;-78
2022/01/31 10:32:46;;;;;;;;;2.50;2.00;;;;;21.43;35.31;101305.13;5074563;28;45419;-79
2022/01/31 10:35:13;;;;;;;;;2.00;2.00;;;;;21.39;35.39;101295.53;5063494;28;45706;-79
2022/01/31 10:37:41;;;;;;;;;3.25;1.00;;;;;21.35;36.01;101317.75;5058891;28;45588;-78
2022/01/31 10:57:02;;;;;;;;;3.25;2.50;;;;;21.27;36.00;101322.38;5077719;28;45923;-83
2022/01/31 10:59:31;;;;;;;;;3.25;2.75;;;;;21.24;36.54;101312.69;5056773;28;45552;-84
2022/01/31 11:01:58;;;;;;;;;3.00;2.00;;;;;21.26;36.27;101324.13;5063811;28;47539;-84
2022/01/31 11:04:23;;;;;;;;;1.25;1.25;;;;;21.28;35.98;101322.34;5064113;28;45417;-83
2022/01/31 11:06:50;;;;;;;;;2.50;2.00;;;;;21.27;35.30;101317.06;5067525;27;45338;-84
2022/01/31 11:09:19;;;;;;;;;5.00;3.50;;;;;21.24;35.84;101328.63;5045186;28;45560;-84
2022/01/31 11:11:48;;;;;;;;;3.00;2.00;;;;;21.24;35.83;101338.38;5060556;28;46294;-84
2022/01/31 11:14:14;;;;;;;;;2.75;2.00;;;;;21.23;35.49;101326.00;5062430;28;45356;-84
2022/01/31 11:16:42;;;;;;;;;3.00;1.00;;;;;21.22;36.16;101318.97;5045803;28;44834;-84
2022/01/31 11:19:09;;;;;;;;;6.25;3.75;;;;;21.22;35.76;101324.25;5081424;28;45627;-86
2022/01/31 11:21:44;;;;;;;;;1.00;1.00;;;;;21.23;35.26;101332.19;5046518;28;47068;-85
2022/01/31 11:24:32;;;;;;;;;2.50;1.75;;;;;21.25;35.75;101311.78;5043552;28;45194;-85
2022/01/31 11:27:08;;;;;;;;;2.50;1.75;;;;;21.25;35.11;101325.03;5084346;27;45302;-84
2022/01/31 11:29:35;;;;;;;;;3.50;2.00;;;;;21.24;35.42;101327.75;5043512;28;45546;-85
2022/01/31 11:32:01;;;;;;;;;4.75;3.00;;;;;21.25;35.07;101324.19;5040735;28;48433;-85
2022/01/31 11:34:26;;;;;;;;;1.50;1.00;;;;;21.22;35.42;101340.19;5063599;28;45396;-85
2022/01/31 11:36:52;;;;;;;;;2.50;2.00;;;;;21.23;35.26;101347.25;5060108;28;47284;-86
2022/01/31 11:39:18;;;;;;;;;4.00;2.00;;;;;21.19;35.70;101327.84;5058065;27;45244;-84
2022/01/31 11:41:45;;;;;;;;;3.75;2.50;;;;;21.19;35.60;101325.19;5063228;28;45355;-85
2022/01/31 11:44:19;;;;;;;;;2.25;2.25;;;;;21.17;35.71;101330.53;5064888;27;45385;-85
2022/01/31 11:46:44;;;;;;;;;3.00;2.00;;;;;21.16;35.01;101325.28;5051409;28;45293;-85
2022/01/31 11:49:12;;;;;;;;;2.75;1.50;;;;;21.18;34.77;101332.28;5061837;28;45371;-85